Terminal Aerodrome Forecast
Issued by NWS

Home | Current Version | Previous Version | Text Only | Print | Product List | Glossary On
Versions: 1 2 3 4 5 6 7 8 9 10 11 12 13 14 15 16 17 18 19
000
FTAK31 PAJN 271300 AAA
TAFASI
TAF AMD
PASI 271326Z 2713/2812 10004KT P6SM -SHRA BKN015 BKN025 OVC070
     FM271800 24007KT P6SM BKN050
     FM280600 12005KT P6SM VCSH BKN050=

USA.gov is the U.S. government's official web portal to all federal, state and local government web resources and services.